createdAt,value
2022-09-21T00:02:11.268Z,0.40
2022-09-21T00:04:44.651Z,0.20
2022-09-21T00:07:20.678Z,0.23
2022-09-21T00:10:00.058Z,0.20
2022-09-21T00:12:30.684Z,0.20
2022-09-21T00:15:06.368Z,0.20
2022-09-21T00:17:35.185Z,0.30
2022-09-21T00:20:07.178Z,0.20
2022-09-21T00:22:51.020Z,0.00
2022-09-21T00:25:22.665Z,0.10
2022-09-21T00:27:52.955Z,0.30
2022-09-21T00:30:26.308Z,0.17
2022-09-21T00:33:01.793Z,0.30
2022-09-21T00:35:32.807Z,0.10
2022-09-21T00:38:05.251Z,0.10
2022-09-21T00:40:44.022Z,0.17
2022-09-21T00:43:17.746Z,0.10
2022-09-21T00:45:54.856Z,0.00
2022-09-21T00:48:25.881Z,0.27
2022-09-21T00:50:58.721Z,0.10
2022-09-21T00:53:31.264Z,0.00
2022-09-21T00:56:15.151Z,0.20
2022-09-21T00:58:50.247Z,0.10
2022-09-21T01:01:21.409Z,0.10
2022-09-21T01:03:50.475Z,0.10
2022-09-21T01:06:19.838Z,0.00
2022-09-21T01:08:57.018Z,0.00
2022-09-21T01:11:46.199Z,0.10
2022-09-21T01:14:33.770Z,0.03
2022-09-21T01:17:29.165Z,0.30
2022-09-21T01:20:27.817Z,0.20
2022-09-21T01:23:19.650Z,0.37
2022-09-21T01:26:12.307Z,0.10
2022-09-21T01:29:06.252Z,0.20
2022-09-21T01:31:43.592Z,0.10
2022-09-21T01:34:20.803Z,0.17
2022-09-21T01:37:01.004Z,0.03
2022-09-21T01:39:42.696Z,0.20
2022-09-21T01:42:20.426Z,0.10
2022-09-21T01:45:05.088Z,0.20
2022-09-21T01:47:37.971Z,0.23
2022-09-21T01:50:24.642Z,0.30
2022-09-21T01:53:02.059Z,0.50
2022-09-21T01:55:36.960Z,0.10
2022-09-21T01:58:22.222Z,0.13
2022-09-21T02:00:59.075Z,0.13
2022-09-21T02:03:53.215Z,0.90
2022-09-21T02:06:25.765Z,0.10
2022-09-21T02:08:57.103Z,0.33
2022-09-21T02:11:35.213Z,0.13
2022-09-21T02:14:06.005Z,0.30
2022-09-21T02:16:56.965Z,0.30
2022-09-21T02:19:49.851Z,0.20
2022-09-21T02:22:36.068Z,0.17
2022-09-21T02:25:46.349Z,0.33
2022-09-21T02:28:37.465Z,0.23
2022-09-21T02:31:20.199Z,0.40
2022-09-21T02:34:11.800Z,0.40
2022-09-21T02:36:48.815Z,0.20
2022-09-21T02:39:48.347Z,0.30
2022-09-21T02:42:22.919Z,0.30
2022-09-21T02:45:22.662Z,0.47
2022-09-21T02:48:11.053Z,0.10
2022-09-21T02:50:59.639Z,0.20
2022-09-21T02:53:38.345Z,0.00
2022-09-21T02:56:10.097Z,0.03
2022-09-21T02:58:48.418Z,0.07
2022-09-21T03:01:29.976Z,0.20
2022-09-21T03:04:30.448Z,0.20
2022-09-21T03:07:06.462Z,0.45
2022-09-21T03:09:38.704Z,0.10
2022-09-21T03:12:09.798Z,0.10
2022-09-21T03:14:48.713Z,0.20
2022-09-21T03:17:16.801Z,0.10
2022-09-21T03:20:01.340Z,0.10
2022-09-21T03:22:33.211Z,0.20
2022-09-21T03:27:35.761Z,0.33
2022-09-21T03:30:19.544Z,0.33
2022-09-21T03:32:57.105Z,0.20
2022-09-21T03:35:37.119Z,0.13
2022-09-21T03:38:12.006Z,0.40
2022-09-21T03:40:42.981Z,0.30
2022-09-21T03:43:14.064Z,0.20
2022-09-21T03:45:43.050Z,0.20
2022-09-21T03:48:16.871Z,0.57
2022-09-21T03:50:50.233Z,0.20
2022-09-21T03:53:21.278Z,0.80
2022-09-21T03:55:54.489Z,0.70
2022-09-21T03:58:28.111Z,0.90
2022-09-21T04:01:05.699Z,0.53
2022-09-21T04:03:34.851Z,0.57
2022-09-21T04:06:14.048Z,0.50
2022-09-21T04:08:45.429Z,0.40
2022-09-21T04:11:17.423Z,0.63
2022-09-21T04:13:53.986Z,0.68
2022-09-21T04:16:34.557Z,0.77
2022-09-21T04:19:08.800Z,0.50
2022-09-21T04:21:39.764Z,0.50
2022-09-21T04:24:11.243Z,0.45
2022-09-21T04:26:48.622Z,0.30
2022-09-21T04:29:22.047Z,0.37
2022-09-21T04:31:52.715Z,0.83
2022-09-21T04:34:28.315Z,0.60
2022-09-21T04:36:58.644Z,0.47
2022-09-21T04:39:26.869Z,0.33
2022-09-21T04:42:03.299Z,0.13
2022-09-21T04:45:06.457Z,0.20
2022-09-21T04:47:49.943Z,0.20
2022-09-21T04:50:29.030Z,0.13
2022-09-21T04:53:08.355Z,0.40
2022-09-21T04:55:49.383Z,0.20
2022-09-21T04:58:24.260Z,0.40
2022-09-21T05:00:55.551Z,0.30
2022-09-21T05:03:26.194Z,0.75
2022-09-21T05:06:03.862Z,0.33
2022-09-21T05:08:49.875Z,0.20
2022-09-21T05:11:27.055Z,0.03
2022-09-21T05:14:12.545Z,0.27
2022-09-21T05:16:44.283Z,0.17
2022-09-21T05:19:15.653Z,0.30
2022-09-21T05:21:46.839Z,0.40
2022-09-21T05:24:19.441Z,0.22
2022-09-21T05:26:59.516Z,0.40
2022-09-21T05:29:35.010Z,0.30
2022-09-21T05:32:24.001Z,0.30
2022-09-21T05:35:18.952Z,0.33
2022-09-21T05:38:09.238Z,0.20
2022-09-21T05:40:45.088Z,0.40
2022-09-21T05:43:23.004Z,0.43
2022-09-21T05:46:07.140Z,0.40
2022-09-21T05:48:42.079Z,0.57
2022-09-21T05:51:33.983Z,0.47
2022-09-21T05:54:21.087Z,0.22
2022-09-21T05:57:06.463Z,1.03
2022-09-21T05:59:48.915Z,0.47
2022-09-21T06:02:32.969Z,0.40
2022-09-21T06:05:04.849Z,0.63
2022-09-21T06:10:18.243Z,0.70
2022-09-21T06:12:54.588Z,0.68
2022-09-21T06:15:32.039Z,0.43
2022-09-21T06:18:05.863Z,0.60
2022-09-21T06:20:42.534Z,0.70
2022-09-21T06:23:24.373Z,0.30
2022-09-21T06:25:58.203Z,0.57
2022-09-21T06:28:31.913Z,0.60
2022-09-21T06:31:05.695Z,0.67
2022-09-21T06:33:37.726Z,0.30
2022-09-21T06:36:09.140Z,0.73
2022-09-21T06:38:50.152Z,0.40
2022-09-21T06:41:22.767Z,0.60
2022-09-21T06:44:03.110Z,0.28
2022-09-21T06:46:34.919Z,0.60
2022-09-21T06:52:01.290Z,0.87
2022-09-21T06:54:35.296Z,0.30
2022-09-21T06:57:07.368Z,0.43
2022-09-21T06:59:37.262Z,0.67
2022-09-21T07:02:08.199Z,0.20
2022-09-21T07:04:49.023Z,0.20
2022-09-21T07:07:30.859Z,0.30
2022-09-21T07:10:06.017Z,0.68
2022-09-21T07:12:50.510Z,1.37
2022-09-21T07:15:24.693Z,0.77
2022-09-21T07:18:10.877Z,1.00
2022-09-21T07:20:41.517Z,0.50
2022-09-21T07:23:15.831Z,1.13
2022-09-21T07:25:54.987Z,1.03
2022-09-21T07:28:38.408Z,0.43
2022-09-21T07:31:17.865Z,1.00
2022-09-21T07:33:49.811Z,1.03
2022-09-21T07:38:59.775Z,0.77
2022-09-21T07:41:38.427Z,0.90
2022-09-21T07:44:07.452Z,1.20
2022-09-21T07:46:47.792Z,0.83
2022-09-21T07:49:20.249Z,1.13
2022-09-21T07:51:52.062Z,1.03
2022-09-21T07:54:31.601Z,1.15
2022-09-21T07:57:15.027Z,1.30
2022-09-21T07:59:45.961Z,1.80
2022-09-21T08:02:20.302Z,1.63
2022-09-21T08:04:50.895Z,2.00
2022-09-21T08:07:22.064Z,1.77
2022-09-21T08:09:53.021Z,2.00
2022-09-21T08:12:24.010Z,1.92
2022-09-21T08:14:54.610Z,2.00
2022-09-21T08:17:33.332Z,2.10
2022-09-21T08:20:11.806Z,2.43
2022-09-21T08:22:42.972Z,2.37
2022-09-21T08:25:16.799Z,2.13
2022-09-21T08:27:51.316Z,3.00
2022-09-21T08:30:20.086Z,2.60
2022-09-21T08:32:55.642Z,2.20
2022-09-21T08:35:26.214Z,1.80
2022-09-21T08:38:03.208Z,2.60
2022-09-21T08:40:33.349Z,1.73
2022-09-21T08:43:15.583Z,2.17
2022-09-21T08:45:53.354Z,1.90
2022-09-21T08:48:47.606Z,2.10
2022-09-21T08:51:23.263Z,1.70
2022-09-21T08:53:55.838Z,1.87
2022-09-21T08:57:00.594Z,2.60
2022-09-21T08:59:26.859Z,2.17
2022-09-21T09:02:25.850Z,1.33
2022-09-21T09:05:13.164Z,2.63
2022-09-21T09:07:57.537Z,1.97
2022-09-21T09:10:39.593Z,2.17
2022-09-21T09:13:20.650Z,1.93
2022-09-21T09:16:00.739Z,1.50
2022-09-21T09:21:34.815Z,1.30
2022-09-21T09:24:36.508Z,1.40
2022-09-21T09:27:10.264Z,1.77
2022-09-21T09:30:03.526Z,1.67
2022-09-21T09:32:48.333Z,0.97
2022-09-21T09:35:35.038Z,1.90
2022-09-21T09:38:13.123Z,1.20
2022-09-21T09:41:07.023Z,1.00
2022-09-21T09:44:06.918Z,0.87
2022-09-21T09:46:58.630Z,1.43
2022-09-21T09:49:47.327Z,1.07
2022-09-21T09:52:20.679Z,0.90
2022-09-21T09:54:54.657Z,1.10
2022-09-21T09:57:30.337Z,1.37
2022-09-21T10:00:11.995Z,1.47
2022-09-21T10:02:57.934Z,1.10
2022-09-21T10:05:35.630Z,1.40
2022-09-21T10:08:09.773Z,1.17
2022-09-21T10:10:45.643Z,0.90
2022-09-21T10:13:36.462Z,1.17
2022-09-21T10:16:11.696Z,0.97
2022-09-21T10:18:52.984Z,0.50
2022-09-21T10:21:22.069Z,0.67
2022-09-21T10:23:52.775Z,0.67
2022-09-21T10:26:27.794Z,0.43
2022-09-21T10:29:08.588Z,0.30
2022-09-21T10:34:21.059Z,0.33
2022-09-21T10:36:56.997Z,0.33
2022-09-21T10:39:32.199Z,0.30
2022-09-21T10:42:09.010Z,0.27
2022-09-21T10:44:51.203Z,0.20
2022-09-21T10:47:34.957Z,0.40
2022-09-21T10:50:10.384Z,0.20
2022-09-21T10:52:47.331Z,0.20
2022-09-21T10:55:23.306Z,0.50
2022-09-21T10:57:54.271Z,0.43
2022-09-21T11:00:25.017Z,0.50
2022-09-21T11:02:58.498Z,0.30
2022-09-21T11:05:31.418Z,0.30
2022-09-21T11:08:06.890Z,0.43
2022-09-21T11:10:51.161Z,0.60
2022-09-21T11:13:42.694Z,0.20
2022-09-21T11:19:41.745Z,0.20
2022-09-21T11:22:11.552Z,0.10
2022-09-21T11:25:07.566Z,0.13
2022-09-21T11:27:42.886Z,0.20
2022-09-21T11:30:23.178Z,0.43
2022-09-21T11:33:10.818Z,0.50
2022-09-21T11:36:00.132Z,0.47
2022-09-21T11:38:47.084Z,0.33
2022-09-21T11:41:36.984Z,0.20
2022-09-21T11:44:24.732Z,0.20
2022-09-21T11:47:13.666Z,0.10
2022-09-21T11:50:26.409Z,0.10
2022-09-21T11:53:16.557Z,0.10
2022-09-21T11:56:12.842Z,0.10
2022-09-21T11:58:53.269Z,0.10
2022-09-21T12:01:48.333Z,0.10
2022-09-21T12:04:18.488Z,0.10
2022-09-21T12:06:55.250Z,0.10
2022-09-21T12:09:25.919Z,0.10
2022-09-21T12:12:08.583Z,0.20
2022-09-21T12:14:57.182Z,0.20
2022-09-21T12:17:46.676Z,0.20
2022-09-21T12:20:24.332Z,0.30
2022-09-21T12:23:10.361Z,0.03
2022-09-21T12:25:56.452Z,0.00
2022-09-21T12:28:39.497Z,0.20
2022-09-21T12:31:40.443Z,0.28
2022-09-21T12:34:20.717Z,0.10
2022-09-21T12:37:11.714Z,0.20
2022-09-21T12:40:16.906Z,0.22
2022-09-21T12:43:21.378Z,0.00
2022-09-21T12:45:56.732Z,0.08
2022-09-21T12:48:45.353Z,0.10
2022-09-21T12:51:23.491Z,0.00
2022-09-21T12:53:53.841Z,0.00
2022-09-21T12:56:43.299Z,0.20
2022-09-21T12:59:40.792Z,0.10
2022-09-21T13:02:20.813Z,0.17
2022-09-21T13:05:29.489Z,0.10
2022-09-21T13:08:28.467Z,0.10
2022-09-21T13:11:04.162Z,0.13
2022-09-21T13:13:46.766Z,0.10
2022-09-21T13:16:38.586Z,0.10
2022-09-21T13:26:59.376Z,0.10
2022-09-21T13:29:29.813Z,0.10
2022-09-21T13:32:13.153Z,0.20
2022-09-21T13:34:46.102Z,0.03
2022-09-21T13:37:26.970Z,0.25
2022-09-21T13:40:06.939Z,0.20
2022-09-21T13:42:37.614Z,0.10
2022-09-21T13:45:21.003Z,0.13
2022-09-21T13:48:03.522Z,0.20
2022-09-21T13:50:42.701Z,0.07
2022-09-21T13:53:27.580Z,0.07
2022-09-21T13:56:17.812Z,0.20
2022-09-21T13:58:56.304Z,0.00
2022-09-21T14:01:47.061Z,0.13
2022-09-21T14:04:34.927Z,0.30
2022-09-21T14:07:20.878Z,0.35
2022-09-21T14:10:04.316Z,0.30
2022-09-21T14:12:44.788Z,0.20
2022-09-21T14:15:47.065Z,0.20
2022-09-21T14:18:53.474Z,0.13
2022-09-21T14:21:21.846Z,0.20
2022-09-21T14:24:13.710Z,0.10
2022-09-21T14:26:49.701Z,0.10
2022-09-21T14:29:35.435Z,0.55
2022-09-21T14:32:09.974Z,0.20
2022-09-21T14:34:48.624Z,0.20
2022-09-21T14:37:34.801Z,0.10
2022-09-21T14:40:16.315Z,0.00
2022-09-21T14:42:48.543Z,0.05
2022-09-21T14:45:24.658Z,0.20
2022-09-21T14:48:04.520Z,0.00
2022-09-21T14:50:37.968Z,0.15
2022-09-21T14:53:29.457Z,0.43
2022-09-21T14:55:59.594Z,0.10
2022-09-21T14:58:44.776Z,0.10
2022-09-21T15:01:38.379Z,0.10
2022-09-21T15:04:27.023Z,0.10
2022-09-21T15:07:43.839Z,0.10
2022-09-21T15:10:53.030Z,0.38
2022-09-21T15:13:39.710Z,0.10
2022-09-21T15:16:28.472Z,0.20
2022-09-21T15:22:24.599Z,0.20
2022-09-21T15:25:06.683Z,0.10
2022-09-21T15:30:33.373Z,0.10
2022-09-21T15:33:05.272Z,0.00
2022-09-21T15:35:34.175Z,0.20
2022-09-21T15:38:12.818Z,0.00
2022-09-21T15:40:54.752Z,0.15
2022-09-21T15:43:26.151Z,0.10
2022-09-21T15:46:04.672Z,0.20
2022-09-21T15:48:47.031Z,0.30
2022-09-21T15:51:40.414Z,0.20
2022-09-21T15:54:36.095Z,0.30
2022-09-21T15:57:27.048Z,0.03
2022-09-21T15:59:58.744Z,0.30
2022-09-21T16:02:30.291Z,0.13
2022-09-21T16:05:10.959Z,0.05
2022-09-21T16:07:42.711Z,0.85
2022-09-21T16:10:39.087Z,1.58
2022-09-21T16:13:34.609Z,0.43
2022-09-21T16:16:12.074Z,0.10
2022-09-21T16:19:02.297Z,0.20
2022-09-21T16:21:41.095Z,0.10
2022-09-21T16:24:23.315Z,0.10
2022-09-21T16:27:02.695Z,0.33
2022-09-21T16:29:51.346Z,0.20
2022-09-21T16:32:22.421Z,0.20
2022-09-21T16:35:02.639Z,0.40
2022-09-21T16:37:42.555Z,0.20
2022-09-21T16:40:13.978Z,0.23
2022-09-21T16:42:56.480Z,0.30
2022-09-21T16:45:29.326Z,0.15
2022-09-21T16:47:57.887Z,0.60
2022-09-21T16:50:39.568Z,0.20
2022-09-21T16:53:10.244Z,0.10
2022-09-21T16:55:41.189Z,0.30
2022-09-21T16:58:24.513Z,0.13
2022-09-21T17:01:01.668Z,0.60
2022-09-21T17:03:35.264Z,0.23
2022-09-21T17:06:10.286Z,0.10
2022-09-21T17:08:47.143Z,0.10
2022-09-21T17:11:27.748Z,0.17
2022-09-21T17:14:01.220Z,0.10
2022-09-21T17:16:32.727Z,0.13
2022-09-21T17:19:05.574Z,0.30
2022-09-21T17:21:36.027Z,0.20
2022-09-21T17:24:06.688Z,0.30
2022-09-21T17:26:38.736Z,0.28
2022-09-21T17:29:44.558Z,0.30
2022-09-21T17:32:17.182Z,0.20
2022-09-21T17:34:46.874Z,0.30
2022-09-21T17:37:17.296Z,0.40
2022-09-21T17:39:54.357Z,0.30
2022-09-21T17:42:28.114Z,0.37
2022-09-21T17:45:16.028Z,0.20
2022-09-21T17:47:48.860Z,0.33
2022-09-21T17:50:28.508Z,0.23
2022-09-21T17:53:16.992Z,0.30
2022-09-21T17:55:56.322Z,0.30
2022-09-21T17:58:40.621Z,0.13
2022-09-21T18:01:14.223Z,0.23
2022-09-21T18:03:47.784Z,0.20
2022-09-21T18:06:21.898Z,0.30
2022-09-21T18:08:54.476Z,0.30
2022-09-21T18:11:46.254Z,0.90
2022-09-21T18:14:24.667Z,0.90
2022-09-21T18:17:14.009Z,0.80
2022-09-21T18:19:58.511Z,0.80
2022-09-21T18:22:41.786Z,0.60
2022-09-21T18:25:21.090Z,0.70
2022-09-21T18:27:58.045Z,0.30
2022-09-21T18:30:41.494Z,0.30
2022-09-21T18:33:22.766Z,0.50
2022-09-21T18:36:06.559Z,0.20
2022-09-21T18:38:59.122Z,0.30
2022-09-21T18:41:48.442Z,0.70
2022-09-21T18:44:36.673Z,1.10
2022-09-21T18:47:23.253Z,0.60
2022-09-21T18:50:15.840Z,0.80
2022-09-21T18:53:09.079Z,0.60
2022-09-21T18:55:39.779Z,0.60
2022-09-21T18:58:16.229Z,1.00
2022-09-21T19:00:51.282Z,0.60
2022-09-21T19:03:23.048Z,1.00
2022-09-21T19:08:46.297Z,1.07
2022-09-21T19:11:27.852Z,1.43
2022-09-21T19:14:07.018Z,1.10
2022-09-21T19:19:42.408Z,1.40
2022-09-21T19:22:31.480Z,1.88
2022-09-21T19:25:18.667Z,1.10
2022-09-21T19:28:04.970Z,1.07
2022-09-21T19:30:40.008Z,0.80
2022-09-21T19:33:48.904Z,0.60
2022-09-21T19:36:28.452Z,0.83
2022-09-21T19:39:00.751Z,0.43
2022-09-21T19:41:49.321Z,0.50
2022-09-21T19:44:38.252Z,1.00
2022-09-21T19:47:24.664Z,1.33
2022-09-21T19:49:58.012Z,1.13
2022-09-21T19:52:31.937Z,0.90
2022-09-21T19:55:20.517Z,1.07
2022-09-21T19:58:09.738Z,1.20
2022-09-21T20:00:41.488Z,0.80
2022-09-21T20:03:16.537Z,1.50
2022-09-21T20:06:00.701Z,0.53
2022-09-21T20:08:43.631Z,0.37
2022-09-21T20:11:25.724Z,0.80
2022-09-21T20:14:20.470Z,0.80
2022-09-21T20:16:54.978Z,0.50
2022-09-21T20:19:51.977Z,0.50
2022-09-21T20:22:34.732Z,0.53
2022-09-21T20:25:22.190Z,0.60
2022-09-21T20:27:57.480Z,0.57
2022-09-21T20:30:29.769Z,0.67
2022-09-21T20:33:00.545Z,0.43
2022-09-21T20:35:38.132Z,0.80
2022-09-21T20:38:12.626Z,0.73
2022-09-21T20:40:43.892Z,0.60
2022-09-21T20:43:19.002Z,0.22
2022-09-21T20:45:56.703Z,0.50
2022-09-21T20:51:13.365Z,0.90
2022-09-21T20:53:43.520Z,1.17
2022-09-21T20:56:20.956Z,1.93
2022-09-21T20:58:51.847Z,1.33
2022-09-21T21:01:23.212Z,1.73
2022-09-21T21:03:56.395Z,0.80
2022-09-21T21:06:24.755Z,0.93
2022-09-21T21:08:58.543Z,0.70
2022-09-21T21:11:33.463Z,0.60
2022-09-21T21:14:10.866Z,1.03
2022-09-21T21:16:44.044Z,1.20
2022-09-21T21:19:28.519Z,0.90
2022-09-21T21:21:59.200Z,0.77
2022-09-21T21:24:45.405Z,0.70
2022-09-21T21:27:20.595Z,0.47
2022-09-21T21:30:03.938Z,0.63
2022-09-21T21:32:36.876Z,0.70
2022-09-21T21:35:10.478Z,0.70
2022-09-21T21:37:41.497Z,0.57
2022-09-21T21:40:15.562Z,0.40
2022-09-21T21:42:59.127Z,0.53
2022-09-21T21:45:28.765Z,0.93
2022-09-21T21:48:02.336Z,0.70
2022-09-21T21:50:34.943Z,0.97
2022-09-21T21:53:03.836Z,0.50
2022-09-21T21:55:37.998Z,1.27
2022-09-21T21:58:15.319Z,0.80
2022-09-21T22:00:43.404Z,0.80
2022-09-21T22:03:14.887Z,0.50
2022-09-21T22:05:45.063Z,0.70
2022-09-21T22:08:16.213Z,0.77
2022-09-21T22:10:52.806Z,0.50
2022-09-21T22:16:11.472Z,0.90
2022-09-21T22:18:49.555Z,0.93
2022-09-21T22:21:38.292Z,0.90
2022-09-21T22:24:11.103Z,0.80
2022-09-21T22:26:44.365Z,0.87
2022-09-21T22:29:20.624Z,0.60
2022-09-21T22:32:00.234Z,0.83
2022-09-21T22:34:45.049Z,0.60
2022-09-21T22:37:22.848Z,0.80
2022-09-21T22:39:59.655Z,0.83
2022-09-21T22:42:29.826Z,0.90
2022-09-21T22:44:58.531Z,0.90
2022-09-21T22:47:30.173Z,1.03
2022-09-21T22:50:01.427Z,0.77
2022-09-21T22:52:30.109Z,1.13
2022-09-21T22:55:07.619Z,0.60
2022-09-21T22:57:37.498Z,0.60
2022-09-21T23:00:08.436Z,1.17
2022-09-21T23:02:51.883Z,0.80
2022-09-21T23:05:24.242Z,0.70
2022-09-21T23:08:00.221Z,0.70
2022-09-21T23:10:34.177Z,0.50
2022-09-21T23:13:09.732Z,0.53
2022-09-21T23:15:39.947Z,0.50
2022-09-21T23:18:16.477Z,0.60
2022-09-21T23:20:47.370Z,0.73
2022-09-21T23:26:07.251Z,0.87
2022-09-21T23:28:40.688Z,0.90
2022-09-21T23:31:18.471Z,1.13
2022-09-21T23:33:51.516Z,0.50
2022-09-21T23:36:44.039Z,0.80
2022-09-21T23:39:15.088Z,0.60
2022-09-21T23:41:49.068Z,0.82
2022-09-21T23:44:17.154Z,0.60
2022-09-21T23:46:51.803Z,0.60
2022-09-21T23:49:29.433Z,0.40
2022-09-21T23:52:03.297Z,0.60
2022-09-21T23:54:30.925Z,0.70
2022-09-21T23:57:03.022Z,0.60
2022-09-21T23:59:41.842Z,0.50
